Time;durP1;ratioP1;P1;durP2;ratioP2;P2;SDS_P1;SDS_P2;PMS_P1;PMS_P2;Temp;Humidity;BMP_temperature;BMP_pressure;BME280_temperature;BME280_humidity;BME280_pressure;Samples;Min_cycle;Max_cycle;Signal;HPM_P1;HPM_P2
2024/03/21 00:01:24;;;;;;;4.97;4.57;;;7.20;99.90;;;7.92;97.98;98211.44;10391916;28;20320;-67
2024/03/21 00:06:26;;;;;;;5.23;4.83;;;7.20;99.90;;;7.99;97.92;98212.00;10361251;28;20683;-67
2024/03/21 00:11:30;;;;;;;5.67;5.27;;;7.20;99.90;;;7.92;98.78;98209.75;10381050;28;20313;-67
2024/03/21 00:16:32;;;;;;;5.23;4.83;;;7.10;99.90;;;7.89;99.05;98214.63;10405675;23;20349;-66
2024/03/21 00:21:35;;;;;;;5.73;4.50;;;7.10;99.90;;;7.92;99.43;98211.44;10374578;28;20408;-66
2024/03/21 00:26:39;;;;;;;5.40;4.90;;;7.10;99.90;;;7.90;98.66;98208.78;10390530;28;20327;-67
2024/03/21 00:31:41;;;;;;;5.30;4.87;;;7.00;99.90;;;7.74;99.71;98205.88;10435506;28;20320;-66
2024/03/21 00:36:43;;;;;;;5.10;4.70;;;6.90;99.90;;;7.75;98.83;98203.44;10443597;28;20347;-65
2024/03/21 00:41:46;;;;;;;4.87;4.47;;;6.90;99.90;;;7.66;99.40;98201.09;10424585;28;20319;-66
2024/03/21 00:46:49;;;;;;;4.83;4.43;;;6.80;99.90;;;7.61;99.42;98197.38;10424668;28;20316;-66
2024/03/21 00:51:51;;;;;;;4.97;4.60;;;6.80;99.90;;;7.61;100.00;98193.91;10427227;28;20316;-67
2024/03/21 00:56:54;;;;;;;6.00;5.50;;;6.80;99.90;;;7.62;100.00;98194.03;10421491;28;20316;-65
2024/03/21 01:01:56;;;;;;;5.13;4.73;;;6.80;99.90;;;7.56;99.79;98188.50;10432557;28;20343;-66
2024/03/21 01:06:59;;;;;;;5.30;4.80;;;6.60;99.90;;;7.48;100.00;98183.63;10426547;28;20328;-66
2024/03/21 01:12:02;;;;;;;5.30;4.80;;;6.70;99.90;;;7.51;100.00;98183.84;10420245;28;20312;-66
2024/03/21 01:17:05;;;;;;;5.13;4.73;;;6.70;99.90;;;7.58;100.00;98180.97;10426037;28;20315;-66
2024/03/21 01:22:07;;;;;;;4.93;4.43;;;6.80;99.90;;;7.55;100.00;98184.16;10424802;28;20312;-67
2024/03/21 01:27:11;;;;;;;5.03;4.53;;;6.70;99.90;;;7.53;100.00;98183.19;10439547;28;20694;-67
2024/03/21 01:32:13;;;;;;;4.83;4.43;;;6.70;99.90;;;7.44;100.00;98173.22;10419841;28;20307;-67
2024/03/21 01:37:15;;;;;;;5.57;5.17;;;6.60;99.90;;;7.43;100.00;98175.63;10419985;28;20788;-66
2024/03/21 01:42:19;;;;;;;4.60;4.30;;;6.60;99.90;;;7.36;100.00;98168.34;10428205;28;20351;-66
2024/03/21 01:47:23;;;;;;;4.53;4.10;;;6.50;99.90;;;7.43;100.00;98171.44;10442435;28;21081;-67
2024/03/21 01:52:26;;;;;;;5.47;4.97;;;6.40;99.90;;;7.28;100.00;98180.47;10422722;28;20312;-66
2024/03/21 01:57:31;;;;;;;4.83;4.43;;;6.40;99.90;;;7.21;100.00;98176.59;10424060;28;20351;-65
2024/03/21 02:02:35;;;;;;;5.00;4.63;;;6.40;99.90;;;7.13;100.00;98175.13;10423223;28;20650;-67
2024/03/21 02:07:37;;;;;;;4.90;4.40;;;6.30;99.90;;;7.12;100.00;98167.38;10423126;28;20727;-67
2024/03/21 02:12:46;;;;;;;5.10;4.60;;;6.30;99.90;;;6.98;100.00;98158.72;10423501;28;20316;-66
2024/03/21 02:17:48;;;;;;;5.07;4.57;;;6.20;99.90;;;7.02;100.00;98160.72;10415317;28;20320;-67
2024/03/21 02:22:52;;;;;;;5.30;4.90;;;6.20;99.90;;;7.05;100.00;98163.50;10423250;28;20767;-67
2024/03/21 02:27:54;;;;;;;4.90;4.60;;;6.30;99.90;;;7.08;100.00;98168.81;10422826;28;20320;-65
2024/03/21 02:32:57;;;;;;;5.30;4.90;;;6.30;99.90;;;7.11;100.00;98170.69;10422112;28;20644;-66
2024/03/21 02:38:00;;;;;;;5.03;4.53;;;6.30;99.90;;;7.08;100.00;98166.25;10425416;28;20316;-67
2024/03/21 02:43:02;;;;;;;4.80;4.50;;;6.30;99.90;;;7.10;100.00;98166.41;10421450;28;20313;-67
2024/03/21 02:48:05;;;;;;;5.10;4.60;;;6.30;99.90;;;7.20;100.00;98171.38;10421903;28;20315;-67
2024/03/21 02:53:09;;;;;;;4.90;4.50;;;6.40;99.90;;;7.23;100.00;98169.06;10419429;28;20748;-66
2024/03/21 02:58:11;;;;;;;4.70;4.30;;;6.40;99.90;;;7.20;100.00;98173.91;10424690;28;20264;-65
2024/03/21 03:03:13;;;;;;;4.50;4.20;;;6.40;99.90;;;7.19;100.00;98172.16;10418981;28;20308;-67
2024/03/21 03:08:17;;;;;;;4.70;4.30;;;6.40;99.90;;;7.27;100.00;98170.16;10421047;28;20315;-67
2024/03/21 03:13:19;;;;;;;4.53;4.20;;;6.50;99.90;;;7.24;100.00;98175.94;10421679;28;20308;-66
2024/03/21 03:18:21;;;;;;;4.37;3.97;;;6.50;99.90;;;7.24;100.00;98178.50;10433658;28;20627;-66
2024/03/21 03:23:25;;;;;;;4.80;4.40;;;6.50;99.90;;;7.26;100.00;98179.47;10439211;28;20344;-66
2024/03/21 03:28:27;;;;;;;4.43;4.03;;;6.40;99.90;;;7.36;100.00;98178.50;10422258;28;20335;-67
2024/03/21 03:38:50;;;;;;;4.73;4.33;;;6.40;99.90;;;7.20;100.00;98174.81;10434272;28;20362;-66
2024/03/21 03:43:52;;;;;;;5.03;4.63;;;6.40;99.90;;;7.18;100.00;98184.00;10421246;28;20382;-66
2024/03/21 03:48:55;;;;;;;5.13;4.63;;;6.40;99.90;;;7.16;100.00;98195.69;10426544;28;20966;-66
2024/03/21 03:53:58;;;;;;;4.77;4.37;;;6.40;99.90;;;7.23;100.00;98197.91;10434921;28;21014;-66
2024/03/21 03:59:01;;;;;;;4.70;4.30;;;6.50;99.90;;;7.32;100.00;98202.78;10427869;28;20312;-67
2024/03/21 04:04:03;;;;;;;5.10;4.70;;;6.50;99.90;;;7.42;100.00;98204.41;10444689;28;20308;-69
2024/03/21 04:09:06;;;;;;;5.00;4.60;;;6.50;99.90;;;7.31;100.00;98206.13;10423881;28;20319;-67
2024/03/21 04:14:09;;;;;;;5.50;4.80;;;6.50;99.90;;;7.18;100.00;98204.31;10418928;28;20307;-65
2024/03/21 04:19:11;;;;;;;5.13;4.73;;;6.40;99.90;;;7.25;100.00;98212.41;10429486;28;20668;-68
2024/03/21 04:24:16;;;;;;;5.10;4.70;;;6.50;99.90;;;7.35;100.00;98208.09;10430128;28;20790;-65
2024/03/21 04:29:18;;;;;;;4.97;4.57;;;6.60;99.90;;;7.50;100.00;98212.56;10423409;28;20327;-65
2024/03/21 04:34:21;;;;;;;5.40;5.00;;;6.70;99.90;;;7.45;100.00;98217.34;10428638;28;20307;-66
2024/03/21 04:39:24;;;;;;;5.80;5.33;;;6.60;99.90;;;7.44;100.00;98220.66;10435021;28;20319;-66
2024/03/21 04:44:26;;;;;;;7.10;6.40;;;6.60;99.90;;;7.26;100.00;98216.72;10424725;28;20315;-66
2024/03/21 04:49:29;;;;;;;7.00;6.40;;;6.50;99.90;;;7.21;100.00;98216.34;10425312;28;20315;-66
2024/03/21 04:54:32;;;;;;;7.53;6.77;;;6.40;99.90;;;7.27;100.00;98224.47;10432973;28;20508;-66
2024/03/21 04:59:34;;;;;;;7.37;6.63;;;6.50;99.90;;;7.31;100.00;98228.13;10417721;28;20800;-66
2024/03/21 05:04:37;;;;;;;6.80;6.20;;;6.50;99.90;;;7.28;100.00;98230.44;10424470;28;20550;-66
2024/03/21 05:09:40;;;;;;;7.17;6.57;;;6.50;99.90;;;7.32;100.00;98229.88;10413699;28;20356;-65
2024/03/21 05:14:42;;;;;;;6.73;6.13;;;6.50;99.90;;;7.34;100.00;98241.06;10414595;28;20316;-66
2024/03/21 05:19:45;;;;;;;7.37;6.53;;;6.50;99.90;;;7.37;100.00;98243.84;10417942;28;20323;-68
2024/03/21 05:24:49;;;;;;;6.67;6.07;;;6.60;99.90;;;7.36;100.00;98247.16;10409535;28;20294;-68
2024/03/21 05:29:51;;;;;;;5.80;5.37;;;6.60;99.90;;;7.38;100.00;98243.97;10421417;28;20673;-67
2024/03/21 05:34:53;;;;;;;6.50;5.03;;;6.50;99.90;;;7.29;100.00;98237.28;10413730;28;20225;-67
2024/03/21 05:39:57;;;;;;;6.20;5.60;;;6.50;99.90;;;7.31;100.00;98243.38;10413610;28;20319;-67
2024/03/21 05:44:59;;;;;;;7.17;6.57;;;6.50;99.90;;;7.34;100.00;98239.41;10413821;28;20320;-66
2024/03/21 05:50:02;;;;;;;7.60;6.73;;;6.50;99.90;;;7.31;100.00;98233.22;10438716;28;20336;-66
2024/03/21 05:55:06;;;;;;;5.87;5.37;;;6.50;99.90;;;7.44;100.00;98235.91;10412203;28;20232;-66
2024/03/21 06:00:12;;;;;;;5.70;5.30;;;6.70;99.90;;;7.67;100.00;98241.06;10416560;28;21277;-66
2024/03/21 06:05:15;;;;;;;5.43;5.03;;;6.90;99.90;;;7.77;100.00;98239.19;10413622;28;20225;-67
2024/03/21 06:10:18;;;;;;;5.83;5.33;;;7.00;99.90;;;7.89;100.00;98247.72;10422799;28;20344;-66
2024/03/21 06:15:20;;;;;;;5.53;5.10;;;7.10;99.90;;;7.97;100.00;98248.28;10412798;28;20308;-65
2024/03/21 06:20:23;;;;;;;6.20;5.70;;;7.20;99.90;;;8.15;100.00;98239.44;10428932;22;20324;-68
2024/03/21 06:25:27;;;;;;;8.03;7.23;;;7.30;99.90;;;8.22;100.00;98240.78;10421802;28;20260;-67
2024/03/21 06:30:29;;;;;;;7.07;5.60;;;7.40;99.90;;;8.32;100.00;98243.19;10431176;28;20245;-67
2024/03/21 06:35:31;;;;;;;6.27;5.70;;;7.60;99.90;;;8.53;100.00;98249.88;10435919;28;20340;-68
2024/03/21 06:40:35;;;;;;;7.20;6.50;;;7.70;99.90;;;8.75;100.00;98261.56;10438411;28;20732;-68
2024/03/21 06:45:37;;;;;;;6.23;5.73;;;7.80;99.90;;;8.87;100.00;98269.19;10440030;28;20312;-67
2024/03/21 06:50:39;;;;;;;6.37;5.77;;;7.90;99.90;;;9.08;99.97;98282.56;10420232;28;20389;-67
2024/03/21 06:55:43;;;;;;;6.40;5.77;;;8.00;99.90;;;9.15;100.00;98287.28;10418462;28;20248;-67
2024/03/21 07:00:46;;;;;;;6.17;5.57;;;8.10;99.90;;;9.20;99.14;98291.94;10422515;28;20260;-67
2024/03/21 07:05:49;;;;;;;6.10;5.60;;;8.10;99.90;;;9.17;99.68;98301.03;10418790;28;20284;-67
2024/03/21 07:10:54;;;;;;;5.80;5.30;;;8.20;99.90;;;9.22;100.00;98309.91;10417543;28;20294;-67
2024/03/21 07:15:57;;;;;;;6.57;5.97;;;8.30;99.90;;;9.33;100.00;98316.63;10419812;28;20381;-67
2024/03/21 07:20:59;;;;;;;5.60;5.20;;;8.50;99.90;;;9.54;99.90;98319.78;10437143;28;20252;-67
2024/03/21 07:26:03;;;;;;;5.43;4.93;;;8.70;99.90;;;9.75;100.00;98325.44;10430026;28;20249;-68
2024/03/21 07:31:05;;;;;;;7.15;5.55;;;9.00;99.90;;;9.99;99.32;98326.22;10431443;28;20339;-67
2024/03/21 07:36:08;;;;;;;6.03;5.53;;;9.10;99.90;;;10.10;99.60;98339.69;10443964;28;20244;-67
2024/03/21 07:41:12;;;;;;;6.43;5.82;;;9.20;99.90;;;10.15;100.00;98341.75;10437505;28;22325;-67
2024/03/21 07:46:17;;;;;;;7.75;6.95;;;9.30;99.90;;;10.23;96.43;98347.38;10426764;28;20309;-68
2024/03/21 07:51:20;;;;;;;7.07;6.35;;;9.40;99.90;;;10.31;97.81;98348.81;10436463;28;20259;-67
2024/03/21 07:56:23;;;;;;;6.97;6.38;;;9.40;99.90;;;10.50;97.13;98345.78;10438817;28;20259;-67
2024/03/21 08:01:26;;;;;;;6.95;6.40;;;9.60;99.90;;;10.74;95.49;98343.94;10454345;28;20700;-67
2024/03/21 08:06:28;;;;;;;7.47;6.82;;;9.90;99.90;;;11.08;95.57;98338.41;10439435;28;20279;-67
2024/03/21 08:11:32;;;;;;;7.68;6.70;;;10.20;99.90;;;11.30;92.61;98357.63;10424053;28;20308;-68
2024/03/21 08:16:34;;;;;;;7.78;6.45;;;10.40;99.90;;;11.49;95.28;98352.88;10433070;28;20263;-68
2024/03/21 08:21:36;;;;;;;6.88;6.22;;;10.70;99.90;;;11.78;92.83;98340.94;10438007;28;20333;-68
2024/03/21 08:26:40;;;;;;;7.82;7.13;;;10.90;99.90;;;11.94;93.28;98339.41;10425240;28;20337;-68
2024/03/21 08:31:42;;;;;;;8.27;7.53;;;11.10;99.90;;;12.27;91.67;98343.88;10424307;28;20339;-68
2024/03/21 08:36:44;;;;;;;7.72;6.57;;;11.40;99.90;;;12.78;90.55;98355.34;10440250;28;20821;-68
2024/03/21 08:41:48;;;;;;;6.00;5.35;;;11.90;99.90;;;13.16;87.69;98354.00;10438092;28;20649;-68
2024/03/21 08:46:50;;;;;;;6.20;5.60;;;12.20;99.90;;;13.16;88.31;98360.06;10441303;28;20344;-68
2024/03/21 08:51:53;;;;;;;5.57;5.15;;;12.30;99.90;;;13.30;88.84;98368.50;10421733;28;20255;-68
2024/03/21 08:56:57;;;;;;;5.50;5.00;;;12.40;99.90;;;13.49;89.50;98368.72;10435405;28;21307;-68
2024/03/21 09:02:03;;;;;;;6.18;5.30;;;12.60;99.90;;;13.80;88.66;98370.34;10451658;28;20248;-68
2024/03/21 09:07:06;;;;;;;6.05;5.47;;;12.90;99.90;;;14.10;88.01;98385.59;10446756;28;20308;-67
2024/03/21 09:12:10;;;;;;;4.88;4.47;;;13.20;99.90;;;14.32;88.27;98382.44;10426082;28;20355;-67
2024/03/21 09:17:12;;;;;;;4.43;4.00;;;13.40;99.90;;;14.69;86.68;98374.03;10427614;28;20260;-67
2024/03/21 09:22:14;;;;;;;5.15;4.40;;;13.80;99.90;;;15.05;84.60;98380.06;10431004;28;20257;-68
2024/03/21 09:27:18;;;;;;;5.93;4.70;;;14.30;99.90;;;15.21;83.43;98374.84;10433051;28;20275;-68
2024/03/21 09:32:21;;;;;;;4.90;4.50;;;14.50;99.90;;;15.37;82.94;98365.25;10419714;28;20293;-68
2024/03/21 09:37:24;;;;;;;4.60;4.30;;;14.50;99.90;;;15.39;82.45;98361.03;10423039;28;20264;-68
2024/03/21 09:42:28;;;;;;;5.03;4.63;;;14.60;99.90;;;15.82;81.35;98370.75;10430181;28;21834;-68
2024/03/21 09:47:32;;;;;;;5.10;4.60;;;15.10;99.90;;;16.16;80.05;98381.72;10420085;28;20985;-69
2024/03/21 09:52:35;;;;;;;4.45;4.05;;;15.40;99.90;;;16.63;76.66;98377.72;10420197;28;20328;-67
2024/03/21 09:57:39;;;;;;;5.97;4.20;;;16.10;99.90;;;16.79;76.21;98380.97;10417905;28;20316;-68
2024/03/21 10:02:44;;;;;;;5.60;4.38;;;16.00;99.90;;;17.26;74.24;98384.59;10420333;28;20308;-68
2024/03/21 10:07:49;;;;;;;5.00;4.60;;;16.60;99.90;;;17.59;70.74;98394.44;10421532;28;20307;-68
2024/03/21 10:12:53;;;;;;;5.40;4.90;;;16.80;99.90;;;17.27;68.92;98394.09;10435110;28;20336;-67
2024/03/21 10:17:55;;;;;;;5.38;4.88;;;16.30;99.90;;;17.32;69.38;98383.13;10433279;28;20938;-68
2024/03/21 10:22:58;;;;;;;5.43;4.93;;;16.30;99.90;;;17.64;68.41;98383.47;10437408;28;20316;-67
2024/03/21 10:28:03;;;;;;;6.78;5.15;;;16.80;99.90;;;17.82;67.71;98395.34;10417590;28;20351;-67
2024/03/21 10:33:16;;;;;;;5.45;5.00;;;17.10;99.90;;;17.86;66.89;98392.94;10416736;28;20653;-67
2024/03/21 10:38:18;;;;;;;5.97;5.38;;;17.10;99.90;;;17.78;66.92;98384.00;10418826;28;20324;-68
2024/03/21 10:43:25;;;;;;;8.07;6.40;;;16.90;99.90;;;17.89;67.69;98387.00;10410602;28;20328;-67
2024/03/21 10:48:30;;;;;;;6.57;5.75;;;17.20;99.90;;;18.23;65.13;98386.50;10409975;28;20225;-67
2024/03/21 10:53:32;;;;;;;8.32;6.03;;;17.60;99.90;;;18.46;64.18;98393.38;10430356;28;20359;-68
2024/03/21 10:58:43;;;;;;;8.93;8.10;;;17.80;99.90;;;18.42;63.66;98390.59;10426280;28;20282;-65
2024/03/21 11:03:51;;;;;;;9.70;8.65;;;17.70;99.90;;;18.26;63.13;98389.22;10413929;28;20293;-67
2024/03/21 11:08:55;;;;;;;10.65;9.57;;;17.60;99.90;;;18.15;61.82;98393.13;10425822;28;20312;-67
2024/03/21 11:14:02;;;;;;;9.90;8.88;;;17.30;99.90;;;17.88;64.24;98393.84;10416127;28;20316;-66
2024/03/21 11:19:05;;;;;;;11.23;9.98;;;17.10;99.90;;;18.34;63.40;98381.69;10413607;28;20320;-68
2024/03/21 11:24:15;;;;;;;12.65;11.35;;;17.40;99.90;;;18.41;62.82;98384.56;10409271;28;20523;-67
2024/03/21 11:29:18;;;;;;;11.73;10.60;;;17.60;99.90;;;18.10;63.32;98392.06;10415557;28;20307;-67
2024/03/21 11:34:24;;;;;;;11.23;10.13;;;17.30;99.90;;;18.23;63.12;98389.09;10417563;28;20675;-64
2024/03/21 11:39:27;;;;;;;12.27;11.13;;;17.30;99.90;;;18.35;61.85;98392.09;10432669;28;20319;-63
2024/03/21 11:44:30;;;;;;;11.60;10.50;;;17.50;99.90;;;18.00;62.84;98402.09;10409587;28;20711;-67
2024/03/21 11:49:33;;;;;;;11.07;9.98;;;17.20;99.90;;;17.67;64.16;98404.25;10422316;28;20324;-67
2024/03/21 11:54:35;;;;;;;11.15;10.00;;;16.80;99.90;;;17.68;63.24;98407.72;10430222;28;20774;-66
2024/03/21 11:59:41;;;;;;;10.10;8.30;;;16.80;99.90;;;17.33;63.92;98420.16;10416285;28;20329;-67
2024/03/21 12:04:43;;;;;;;10.32;9.30;;;16.50;99.90;;;17.34;63.93;98416.78;10417251;28;20316;-67
2024/03/21 12:09:45;;;;;;;9.27;8.23;;;16.70;99.90;;;17.27;63.62;98415.63;10419081;28;20327;-67
2024/03/21 12:14:49;;;;;;;10.02;9.00;;;16.60;99.90;;;17.72;64.13;98419.97;10432969;28;20322;-67
2024/03/21 12:19:51;;;;;;;14.40;13.07;;;17.10;99.90;;;17.89;62.74;98418.03;10419745;28;20727;-67
2024/03/21 12:24:54;;;;;;;12.55;11.35;;;17.30;99.90;;;18.46;61.75;98416.66;10456884;22;20321;-65
2024/03/21 12:29:58;;;;;;;13.23;11.82;;;17.80;99.90;;;18.66;58.57;98416.47;10474752;28;20315;-65
2024/03/21 12:35:00;;;;;;;12.75;11.50;;;18.10;99.90;;;18.78;58.39;98419.50;10431431;28;20320;-65
2024/03/21 12:40:02;;;;;;;14.30;13.10;;;18.10;99.90;;;19.02;58.31;98413.38;10422460;28;20681;-64
2024/03/21 12:45:07;;;;;;;20.17;14.40;;;18.40;99.90;;;19.31;58.94;98409.97;10424755;28;20439;-65
2024/03/21 12:50:10;;;;;;;16.45;14.75;;;18.70;99.90;;;19.37;54.90;98427.44;10422327;28;20557;-64
2024/03/21 12:55:12;;;;;;;14.27;12.77;;;18.70;99.90;;;19.33;52.73;98418.69;10428701;28;20307;-64
2024/03/21 13:00:17;;;;;;;14.65;11.30;;;18.60;99.90;;;19.25;52.96;98421.88;10443722;28;20320;-65
2024/03/21 13:05:19;;;;;;;29.20;15.63;;;18.60;99.90;;;19.30;52.25;98417.72;10421828;28;20767;-64
2024/03/21 13:10:22;;;;;;;15.10;13.70;;;18.70;99.90;;;19.48;53.16;98422.59;10424928;28;20316;-65
2024/03/21 13:15:25;;;;;;;32.08;14.35;;;18.80;99.90;;;19.21;51.81;98428.69;10433037;28;20679;-65
2024/03/21 13:20:28;;;;;;;14.40;13.07;;;18.50;99.90;;;18.55;52.73;98428.16;10418408;28;20777;-65
2024/03/21 13:25:32;;;;;;;16.58;15.07;;;17.90;99.90;;;18.15;54.71;98431.94;10418943;28;20370;-64
2024/03/21 13:30:35;;;;;;;16.83;15.23;;;17.50;99.90;;;18.29;56.18;98422.94;10415776;28;20221;-65
2024/03/21 13:35:38;;;;;;;16.70;15.15;;;17.50;99.90;;;18.08;55.33;98424.75;10418179;28;20322;-64
2024/03/21 13:40:40;;;;;;;16.42;14.90;;;17.40;99.90;;;18.15;55.11;98429.34;10419420;28;20243;-64
2024/03/21 13:45:53;;;;;;;16.75;15.00;;;17.40;99.90;;;18.12;56.48;98432.69;10416215;28;20574;-64
2024/03/21 13:50:55;;;;;;;18.17;16.48;;;17.40;99.90;;;17.99;56.06;98428.75;10415220;28;21755;-64
2024/03/21 13:55:57;;;;;;;20.50;18.55;;;17.30;99.90;;;17.84;56.62;98427.31;10429561;28;20380;-65
2024/03/21 14:01:02;;;;;;;23.35;21.05;;;17.20;99.90;;;17.90;57.90;98419.78;10430051;28;20302;-65
2024/03/21 14:06:08;;;;;;;22.73;20.48;;;17.10;99.90;;;17.88;57.69;98418.84;10419443;28;20370;-65
2024/03/21 14:11:10;;;;;;;22.70;20.52;;;17.20;99.90;;;17.85;58.33;98421.31;10431106;28;20307;-65
2024/03/21 14:16:14;;;;;;;23.02;20.70;;;17.10;99.90;;;18.22;55.33;98426.13;10421776;28;20256;-65
2024/03/21 14:21:16;;;;;;;21.75;19.63;;;17.40;99.90;;;18.23;56.14;98426.19;10430969;28;20267;-64
2024/03/21 14:26:19;;;;;;;24.00;21.50;;;17.40;99.90;;;18.12;56.14;98426.66;10428749;28;20319;-64
2024/03/21 14:31:22;;;;;;;24.80;22.30;;;17.40;99.90;;;17.84;56.03;98435.09;10443910;28;20308;-65
2024/03/21 14:36:24;;;;;;;26.50;23.80;;;17.00;99.90;;;17.27;55.41;98441.47;10426630;28;20308;-65
2024/03/21 14:41:26;;;;;;;25.30;22.67;;;16.60;99.90;;;17.09;56.27;98433.88;10431442;28;20263;-65
2024/03/21 14:46:32;;;;;;;25.17;22.52;;;16.50;99.90;;;16.89;57.61;98450.25;10428277;28;20317;-64
2024/03/21 14:51:34;;;;;;;23.98;21.40;;;16.30;99.90;;;16.80;57.01;98470.53;10416777;28;20320;-65
2024/03/21 14:56:37;;;;;;;22.58;20.23;;;16.20;99.90;;;16.78;55.49;98454.97;10412155;28;20308;-64
2024/03/21 15:01:40;;;;;;;19.92;17.63;;;16.10;99.90;;;16.60;54.75;98455.03;10408411;28;20235;-64
2024/03/21 15:06:42;;;;;;;16.63;14.80;;;16.00;99.90;;;16.74;53.34;98458.22;10412537;28;20316;-64
2024/03/21 15:11:47;;;;;;;14.55;13.15;;;16.00;99.80;;;16.63;53.09;98465.50;10413277;28;20311;-64
2024/03/21 15:16:51;;;;;;;14.00;12.57;;;16.00;99.70;;;16.61;52.05;98461.94;10429141;28;20300;-64
2024/03/21 15:21:53;;;;;;;9.98;8.98;;;15.90;98.60;;;16.76;51.05;98466.00;10415720;28;20327;-63
2024/03/21 15:26:55;;;;;;;9.50;8.55;;;16.00;98.00;;;16.86;48.85;98470.78;10414668;28;20312;-64
2024/03/21 15:31:58;;;;;;;10.40;8.23;;;16.20;95.60;;;16.75;49.17;98466.84;10422815;28;20844;-65
2024/03/21 15:37:01;;;;;;;9.52;8.63;;;16.00;96.20;;;16.35;49.16;98472.84;10442428;28;20307;-64
2024/03/21 15:42:03;;;;;;;8.95;8.07;;;15.80;95.70;;;16.33;50.71;98474.47;10424293;28;20396;-63
2024/03/21 15:47:07;;;;;;;7.28;6.60;;;15.70;96.90;;;16.42;51.12;98469.72;10423432;28;20315;-64
2024/03/21 15:52:09;;;;;;;7.80;6.88;;;15.70;97.90;;;16.45;51.98;98475.00;10422098;28;20767;-65
2024/03/21 15:57:11;;;;;;;8.32;7.53;;;15.60;98.30;;;16.15;52.04;98470.25;10422802;28;20320;-63
2024/03/21 16:02:14;;;;;;;7.07;6.20;;;15.50;98.50;;;16.20;53.30;98473.94;10420451;28;21878;-64
2024/03/21 16:07:16;;;;;;;6.22;5.57;;;15.40;99.70;;;16.30;53.39;98480.38;10417172;28;20236;-64
2024/03/21 16:12:18;;;;;;;7.15;5.15;;;15.40;99.90;;;16.30;53.42;98482.06;10451742;28;20252;-64
2024/03/21 16:17:23;;;;;;;4.35;3.92;;;15.50;99.90;;;16.08;53.80;98487.94;10431244;28;20308;-65
2024/03/21 16:22:25;;;;;;;4.25;3.85;;;15.30;99.80;;;16.17;51.88;98494.44;10436276;28;20257;-64
2024/03/21 16:27:27;;;;;;;3.88;3.22;;;15.30;98.70;;;15.99;52.36;98499.63;10436091;28;20256;-64
2024/03/21 16:32:30;;;;;;;9.85;8.98;;;15.10;99.30;;;15.67;53.22;98505.81;10420419;28;20312;-64
2024/03/21 16:37:33;;;;;;;5.93;4.93;;;14.80;99.70;;;15.49;54.71;98520.41;10412575;28;20284;-65
2024/03/21 16:42:35;;;;;;;5.35;4.85;;;14.60;99.90;;;15.31;56.26;98526.44;10412062;28;20225;-65
2024/03/21 16:47:38;;;;;;;4.18;3.38;;;14.50;99.90;;;15.31;55.74;98534.16;10418008;28;20327;-66
2024/03/21 16:52:41;;;;;;;4.20;3.17;;;14.40;99.90;;;15.20;56.84;98537.03;10422437;28;20308;-66
2024/03/21 16:57:43;;;;;;;3.75;3.28;;;14.30;99.90;;;15.07;54.71;98545.81;10420342;28;20312;-64
2024/03/21 17:02:46;;;;;;;3.50;2.97;;;14.30;99.90;;;14.91;54.91;98543.25;10423382;28;20319;-66
2024/03/21 17:07:51;;;;;;;3.53;3.22;;;14.00;99.90;;;14.74;56.68;98543.28;10411700;28;20695;-66
2024/03/21 17:12:56;;;;;;;4.13;3.72;;;13.90;99.90;;;14.56;57.40;98556.06;10415694;28;20701;-66
2024/03/21 17:17:59;;;;;;;3.13;2.85;;;13.70;99.90;;;14.40;57.90;98556.91;10411356;28;20216;-65
2024/03/21 17:23:02;;;;;;;2.83;2.63;;;13.50;99.90;;;14.24;58.32;98562.03;10414581;28;21282;-65
2024/03/21 17:28:04;;;;;;;3.17;2.97;;;13.30;99.90;;;14.10;58.44;98575.81;10428318;28;20225;-65
2024/03/21 17:33:08;;;;;;;3.25;2.95;;;13.20;99.90;;;13.91;60.64;98582.53;10406875;28;20239;-65
2024/03/21 17:38:10;;;;;;;3.10;2.90;;;13.00;99.90;;;13.74;61.79;98583.28;10411270;28;20221;-65
2024/03/21 17:43:13;;;;;;;3.42;3.13;;;12.80;99.90;;;13.59;63.06;98598.72;10410002;28;20235;-66
2024/03/21 17:48:17;;;;;;;3.83;3.53;;;12.70;99.90;;;13.43;62.83;98607.22;10408500;28;20290;-66
2024/03/21 17:53:19;;;;;;;3.95;3.65;;;12.50;99.90;;;13.30;62.55;98599.59;10415488;28;20774;-66
2024/03/21 17:58:21;;;;;;;4.55;4.15;;;12.40;99.90;;;13.13;64.66;98610.50;10426421;28;20665;-65
2024/03/21 18:03:24;;;;;;;4.25;3.85;;;12.20;99.90;;;12.96;65.68;98610.44;10425399;28;20348;-64
2024/03/21 18:08:27;;;;;;;5.20;4.68;;;12.10;99.90;;;12.79;67.22;98613.63;10419973;28;20320;-65
2024/03/21 18:13:29;;;;;;;5.22;4.70;;;11.90;99.90;;;12.52;69.00;98621.41;10426116;28;20320;-65
2024/03/21 18:18:32;;;;;;;6.05;5.40;;;11.50;99.90;;;12.36;69.29;98623.81;10415227;28;20292;-65
2024/03/21 18:23:35;;;;;;;6.70;6.10;;;11.40;99.90;;;12.18;70.91;98629.56;10435906;28;20316;-64
2024/03/21 18:28:38;;;;;;;9.43;8.73;;;11.30;99.90;;;12.02;71.27;98633.63;10433242;22;20428;-67
2024/03/21 18:33:41;;;;;;;10.30;9.50;;;11.00;99.90;;;11.87;71.17;98630.97;10423936;28;20316;-68
2024/03/21 18:38:43;;;;;;;5.68;5.28;;;11.00;99.90;;;11.71;72.58;98636.75;10408176;28;20423;-67
2024/03/21 18:43:46;;;;;;;4.80;4.40;;;10.80;99.90;;;11.53;72.78;98633.84;10410136;28;20348;-67
2024/03/21 18:48:51;;;;;;;4.55;4.25;;;10.60;99.90;;;11.36;74.31;98634.41;10412971;28;20216;-67
2024/03/21 18:53:53;;;;;;;4.70;4.30;;;10.40;99.90;;;11.20;75.28;98646.19;10426395;28;20304;-67
2024/03/21 18:58:57;;;;;;;4.93;4.50;;;10.30;99.90;;;10.89;77.23;98642.34;10409174;28;20690;-67
2024/03/21 19:04:06;;;;;;;5.70;4.85;;;10.00;99.90;;;10.83;77.58;98648.81;10424259;28;20974;-70
2024/03/21 19:09:09;;;;;;;6.00;5.40;;;9.90;99.90;;;10.74;78.55;98658.41;10408279;28;20249;-68
2024/03/21 19:14:11;;;;;;;6.07;5.47;;;9.80;99.90;;;10.53;80.57;98662.94;10408632;28;20220;-66
2024/03/21 19:19:22;;;;;;;7.28;6.60;;;9.60;99.90;;;10.46;79.81;98659.84;10403495;28;20243;-67
2024/03/21 19:24:24;;;;;;;6.70;6.10;;;9.60;99.90;;;10.45;81.36;98663.19;10417586;28;20236;-67
2024/03/21 19:29:29;;;;;;;6.40;5.90;;;9.50;99.90;;;10.32;82.73;98657.19;10415776;28;20319;-66
2024/03/21 19:34:37;;;;;;;11.07;10.05;;;9.50;99.90;;;10.45;82.79;98668.28;10421023;28;20311;-68
2024/03/21 19:39:39;;;;;;;6.38;5.88;;;9.50;99.90;;;10.24;83.58;98665.94;10418567;28;20530;-67
2024/03/21 19:44:42;;;;;;;5.32;4.93;;;9.30;99.90;;;10.13;82.95;98664.31;10412329;28;20320;-67
2024/03/21 19:49:47;;;;;;;5.60;5.13;;;9.20;99.90;;;10.02;83.33;98665.19;10416012;28;20633;-67
2024/03/21 19:54:50;;;;;;;6.57;5.97;;;9.20;99.90;;;9.97;85.20;98676.75;10425934;28;20312;-67
2024/03/21 19:59:55;;;;;;;6.68;5.90;;;9.10;99.90;;;9.86;84.93;98678.50;10420739;28;20321;-67
2024/03/21 20:05:01;;;;;;;7.32;6.57;;;9.00;99.90;;;9.77;86.20;98678.72;10422597;28;20336;-67
2024/03/21 20:10:04;;;;;;;7.65;6.95;;;8.90;99.90;;;9.68;86.28;98678.06;10424329;28;20316;-68
2024/03/21 20:15:07;;;;;;;9.43;8.63;;;8.80;99.90;;;9.59;88.28;98668.06;10418503;28;20316;-67
2024/03/21 20:20:14;;;;;;;9.55;7.45;;;8.70;99.90;;;9.48;87.99;98680.00;10420291;28;20882;-69
2024/03/21 20:25:17;;;;;;;8.15;7.35;;;8.60;99.90;;;9.37;88.84;98678.31;10423432;28;20320;-67
2024/03/21 20:30:19;;;;;;;7.13;6.53;;;8.50;99.90;;;9.30;87.88;98678.66;10420556;28;20339;-68
2024/03/21 20:35:24;;;;;;;8.18;7.47;;;8.40;99.90;;;9.21;88.70;98685.59;10437457;28;20814;-67
2024/03/21 20:40:26;;;;;;;8.00;7.40;;;8.40;99.90;;;9.08;89.80;98675.25;10418647;28;20225;-67
2024/03/21 20:45:30;;;;;;;7.40;6.80;;;8.20;99.90;;;9.06;91.15;98687.00;10430794;28;20408;-66
2024/03/21 20:50:34;;;;;;;7.40;6.70;;;8.20;99.90;;;8.99;90.75;98685.63;10441786;28;20253;-67
2024/03/21 20:55:39;;;;;;;7.60;7.00;;;8.10;99.90;;;8.88;91.22;98692.47;10426728;28;20325;-67
2024/03/21 21:00:41;;;;;;;6.97;6.30;;;8.00;99.90;;;8.85;91.61;98701.53;10427569;28;20311;-67
2024/03/21 21:05:45;;;;;;;6.93;6.23;;;8.00;99.90;;;8.87;92.39;98708.53;10421024;28;20351;-67
2024/03/21 21:10:47;;;;;;;6.20;5.70;;;8.00;99.90;;;8.80;92.13;98706.28;10416401;28;20660;-67